Terminal Aerodrome Forecast
Issued by NWS Grand Forks, ND

Home | Current Version | Previous Version | Graphics & Text | Print | Product List | Glossary On
Versions: 1 2 3 4 5 6 7 8 9 10 11 12 13 14 15 16 17 18 19 20
000
FTUS43 KFGF 290200 AAA
TAFFAR
TAF AMD
KFAR 290200Z 2902/2924 34021G27KT 5SM BR OVC005
     FM290300 34022G28KT P6SM OVC007
     FM290600 34020G28KT P6SM OVC008
     FM291500 34017KT P6SM OVC015=

USA.gov is the U.S. government's official web portal to all federal, state and local government web resources and services.